Flight Track Log - Related Links

Times and Time Zones

All times are in EDT time to prevent confusion due to time zone crossing. See the N589H flight status page for this flight to view local times or setup timezone preferences in your user account.

Time Position Orientation Groundspeed Altitude Reporting Facility
EDT Latitude Longitude Course Direction KTS MPH feet Rate Location/Type
Sat 08:05:23 AM 27.9000 -82.6833 221° Southwest 147 169 500  Level Tampa TRACON
Sat 08:06:05 AM 27.8833 -82.7000 221° Southwest 176 203 1,300 1,588 Climbing Tampa TRACON
Sat 08:07:05 AM 27.8500 -82.7667 241° Southwest 207 238 3,200 2,105 Climbing Tampa TRACON
Sat 08:07:59 AM 27.8000 -82.7500 164° South 197 227 5,300 2,050 Climbing Tampa TRACON
Sat 08:09:05 AM 27.7500 -82.7500 180° South 200 230 7,300 1,694 Climbing Tampa TRACON
Sat 08:11:35 AM 27.5989 -82.6744 156° South 250 288 11,400 1,629 Climbing Miami Center
Sat 08:12:35 AM 27.5442 -82.6294 144° Southeast 245 282 13,000 800 Climbing Miami Center
Sat 08:13:35 AM 27.4750 -82.5839 150° Southeast 259 298 13,000  Level Miami Center
Sat 08:14:35 AM 27.3956 -82.5378 153° Southeast 292 336 13,000  Level Miami Center
Sat 08:15:35 AM 27.3183 -82.4872 150° Southeast 313 360 13,000  Level Miami Center
Sat 08:16:35 AM 27.2386 -82.4392 152° Southeast 325 374 13,000  Level Miami Center
Sat 08:17:35 AM 27.1592 -82.3908 152° Southeast 325 374 13,000  Level Miami Center
Sat 08:18:35 AM 27.0714 -82.3378 152° Southeast 320 368 13,000 -600 Level Miami Center
Sat 08:19:35 AM 27.0083 -82.2975 150° Southeast 320 368 11,800 -1,200 Descending Miami Center
Sat 08:20:35 AM 26.9247 -82.2469 152° Southeast 320 368 10,600 -900 Descending Miami Center
Sat 08:21:35 AM 26.8533 -82.2019 151° Southeast 310 357 10,000 -300 Descending Miami Center
Sat 08:22:35 AM 26.7797 -82.1567 151° Southeast 310 357 10,000  Level Miami Center
Sat 08:23:35 AM 26.7064 -82.1114 151° Southeast 303 349 10,000 -650 Level Miami Center
Sat 08:24:35 AM 26.6244 -82.0614 151° Southeast 303 349 8,700 -1,150 Descending Miami Center
Sat 08:25:35 AM 26.5508 -82.0186 153° Southeast 303 349 7,700 -1,050 Descending Miami Center
Sat 08:26:35 AM 26.4817 -81.9739 150° Southeast 298 343 6,600 -1,100 Descending Miami Center
Sat 08:27:35 AM 26.4119 -81.9314 151° Southeast 298 343 5,500 -1,500 Descending Miami Center
Sat 08:28:35 AM 26.3422 -81.8961 156° South 280 322 3,600 -1,900 Descending Miami Center
Sat 08:30:00 AM 26.2641 -81.8404 156° South  Level FlightAware Approximate
Sat 08:37:00 AM 26.1500 -81.7667 146° Southeast  Level FlightAware Approximate
Sat 08:38:00 AM 26.1524 -81.7756 90° East  Level Estimated
Sat 08:39:00 AM 26.1524 -81.7756 146° Southeast  Level Estimated
Sat 08:40:00 AM 26.1524 -81.7756 107° East  Level Estimated
Sat 08:41:00 AM 26.1524 -81.7756 146° Southeast  Level Estimated

Login

Don't have an account? Register now (free) for customized features, flight alerts, and more!